createdAt,value
2016-03-06T14:48:05.752Z,23.44
2016-03-06T14:50:02.943Z,23.41
2016-03-06T14:52:00.121Z,23.4
2016-03-06T14:52:39.546Z,23.41
2016-03-06T14:53:39.940Z,23.38
2016-03-06T14:54:38.240Z,23.41
2016-03-06T14:55:38.460Z,23.38
2016-03-06T16:53:04.774Z,21.58
2016-03-06T16:54:06.230Z,21.7
2016-03-06T16:55:05.733Z,21.78
2016-03-06T16:56:06.236Z,21.78
2016-03-06T16:57:06.068Z,21.77
2016-03-06T16:58:05.866Z,21.82
2016-03-06T16:59:06.854Z,21.76
2016-03-06T17:00:05.793Z,21.82
2016-03-06T17:01:06.093Z,21.78
2016-03-06T17:02:06.081Z,21.78
2016-03-06T17:03:05.927Z,21.77
2016-03-06T17:04:05.118Z,21.74
2016-03-06T17:05:04.885Z,21.71
2016-03-06T17:06:05.092Z,21.66
2016-03-06T17:07:05.970Z,21.66
2016-03-06T17:08:05.081Z,21.55
2016-03-06T17:09:05.318Z,21.61
2016-03-06T17:10:05.758Z,21.62
2016-03-06T17:11:06.230Z,21.66
2016-03-06T17:12:05.436Z,21.61
2016-03-06T17:13:05.250Z,21.59
2016-03-06T17:14:05.753Z,21.61
2016-03-06T17:15:04.850Z,21.7
2016-03-06T17:16:05.008Z,21.71
2016-03-06T17:17:06.261Z,21.71
2016-03-06T17:18:05.233Z,21.71
2016-03-06T17:19:04.564Z,21.68
2016-03-06T17:20:05.129Z,21.61
2016-03-06T17:21:05.303Z,21.66
2016-03-06T17:22:05.540Z,21.62
2016-03-06T17:23:04.824Z,21.62
2016-03-06T17:24:08.608Z,21.61
2016-03-06T17:25:07.892Z,21.59
2016-03-06T17:26:08.082Z,21.64
2016-03-06T17:27:08.038Z,21.62
2016-03-06T17:29:07.904Z,21.7
2016-03-06T17:30:07.937Z,21.74
2016-03-06T17:31:07.190Z,21.7
2016-03-06T17:32:07.865Z,21.73
2016-03-06T17:33:07.742Z,21.77
2016-03-06T17:34:08.042Z,21.71
2016-03-06T17:35:05.637Z,21.7
2016-03-06T17:36:07.626Z,21.71
2016-03-06T17:37:08.003Z,21.64
2016-03-06T17:38:07.646Z,21.7
2016-03-06T17:39:08.087Z,21.67
2016-03-06T17:40:07.792Z,21.62
2016-03-06T17:41:07.545Z,21.61
2016-03-06T17:42:08.141Z,21.64
2016-03-06T17:43:05.019Z,21.61
2016-03-06T17:44:07.661Z,21.68
2016-03-06T17:45:07.914Z,21.74
2016-03-06T17:46:07.839Z,21.68
2016-03-06T17:47:08.044Z,21.74
2016-03-06T17:48:07.923Z,21.74
2016-03-06T17:49:07.675Z,21.67
2016-03-06T17:50:05.256Z,21.7
2016-03-06T17:51:04.572Z,21.64
2016-03-06T17:52:08.277Z,21.58
2016-03-06T17:53:08.124Z,21.66
2016-03-06T17:54:08.439Z,21.53
2016-03-06T17:55:08.301Z,21.62
2016-03-06T17:56:08.179Z,21.53
2016-03-06T17:57:08.056Z,21.59
2016-03-06T17:58:08.168Z,21.62
2016-03-06T17:59:07.609Z,21.64
2016-03-06T18:00:08.612Z,21.59
2016-03-06T18:01:06.365Z,21.58
2016-03-06T18:02:05.070Z,21.59
2016-03-06T18:03:05.463Z,21.62
2016-03-06T18:04:05.028Z,21.66
2016-03-06T18:05:05.125Z,21.64
2016-03-06T18:06:08.116Z,21.59
2016-03-06T18:07:08.214Z,21.61
2016-03-06T18:08:08.107Z,21.62
2016-03-06T18:09:08.234Z,21.56
2016-03-06T18:10:07.972Z,21.64
2016-03-06T18:11:08.193Z,21.49
2016-03-06T18:12:08.352Z,21.56
2016-03-06T18:13:08.323Z,21.56
2016-03-06T18:14:08.435Z,21.62
2016-03-06T18:15:04.672Z,21.64
2016-03-06T18:16:05.081Z,21.59
2016-03-06T18:17:08.943Z,21.67
2016-03-06T18:18:05.039Z,21.64
2016-03-06T18:19:05.901Z,21.64
2016-03-06T18:20:05.044Z,21.59
2016-03-06T18:21:08.422Z,21.62
2016-03-06T18:22:08.113Z,21.62
2016-03-06T18:23:07.803Z,21.49
2016-03-06T18:24:08.149Z,21.43
2016-03-06T18:25:05.230Z,21.43
2016-03-06T18:26:08.404Z,21.41
2016-03-06T18:27:04.798Z,21.43
2016-03-06T18:28:08.191Z,21.43
2016-03-06T18:29:08.616Z,21.43
2016-03-06T18:30:09.651Z,21.34
2016-03-06T18:31:05.153Z,21.43
2016-03-06T18:32:07.656Z,21.43
2016-03-06T18:33:05.658Z,21.41
2016-03-06T18:34:08.489Z,21.38
2016-03-06T18:35:05.039Z,21.25
2016-03-06T18:36:10.057Z,21.31
2016-03-06T18:37:05.044Z,21.31
2016-03-06T18:38:05.515Z,21.25
2016-03-06T18:39:07.986Z,21.22
2016-03-06T18:40:07.864Z,21.11
2016-03-06T18:41:04.867Z,21.16
2016-03-06T18:42:07.979Z,21.06
2016-03-06T18:43:07.107Z,21.08
2016-03-06T18:44:08.250Z,21.09
2016-03-06T18:45:08.800Z,21.09
2016-03-06T18:46:15.068Z,21.08
2016-03-06T18:47:07.367Z,21
2016-03-06T18:48:08.542Z,20.98
2016-03-06T18:49:08.607Z,21
2016-03-06T18:50:05.329Z,21.06
2016-03-06T18:51:04.987Z,20.98
2016-03-06T18:52:05.068Z,21.06
2016-03-06T18:53:05.258Z,21.03
2016-03-06T18:54:07.979Z,20.93
2016-03-06T18:55:05.076Z,20.88
2016-03-06T18:56:05.423Z,20.86
2016-03-06T18:57:05.254Z,20.81
2016-03-06T18:58:05.068Z,20.82
2016-03-06T18:59:04.868Z,20.93
2016-03-06T19:00:05.074Z,20.82
2016-03-06T19:01:05.233Z,20.79
2016-03-06T19:02:07.751Z,20.85
2016-03-06T19:03:04.896Z,20.83
2016-03-06T19:04:05.382Z,20.91
2016-03-06T19:05:05.041Z,20.9
2016-03-06T19:06:12.918Z,20.82
2016-03-06T19:07:16.546Z,20.81
2016-03-06T19:08:04.845Z,20.81
2016-03-06T19:09:05.880Z,20.78
2016-03-06T19:10:06.258Z,20.75
2016-03-06T19:11:07.291Z,20.76
2016-03-06T19:12:08.123Z,20.74
2016-03-06T19:13:07.047Z,20.71
2016-03-06T19:14:07.519Z,20.72
2016-03-06T19:15:05.646Z,20.76
2016-03-06T19:16:07.617Z,20.81
2016-03-06T19:17:08.933Z,20.83
2016-03-06T19:18:07.685Z,20.74
2016-03-06T19:19:08.078Z,20.74
2016-03-06T19:20:13.096Z,20.82
2016-03-06T19:21:05.490Z,20.74
2016-03-06T19:22:07.915Z,20.74
2016-03-06T19:23:09.245Z,20.66
2016-03-06T19:24:07.858Z,20.67
2016-03-06T19:25:08.141Z,20.63
2016-03-06T19:26:08.254Z,20.67
2016-03-06T19:27:07.819Z,20.72
2016-03-06T19:28:08.274Z,20.71
2016-03-06T19:29:08.277Z,20.68
2016-03-06T19:30:08.342Z,20.72
2016-03-06T19:31:08.189Z,20.71
2016-03-06T19:32:07.785Z,20.76
2016-03-06T19:33:08.038Z,20.72
2016-03-06T19:34:08.229Z,20.74
2016-03-06T19:35:05.029Z,20.74
2016-03-06T19:36:08.218Z,20.72
2016-03-06T19:37:08.252Z,20.71
2016-03-06T19:38:08.364Z,20.72
2016-03-06T19:39:08.679Z,20.66
2016-03-06T19:40:08.244Z,20.72
2016-03-06T19:41:08.028Z,20.67
2016-03-06T19:42:08.187Z,20.72
2016-03-06T19:43:08.253Z,20.68
2016-03-06T19:44:07.881Z,20.71
2016-03-06T19:45:08.227Z,20.74
2016-03-06T19:46:08.136Z,20.72
2016-03-06T19:47:08.311Z,20.75
2016-03-06T19:48:08.172Z,20.72
2016-03-06T19:49:07.863Z,20.78
2016-03-06T19:50:05.036Z,20.72
2016-03-06T19:51:07.461Z,20.71
2016-03-06T19:52:08.073Z,20.68
2016-03-06T19:53:08.123Z,20.71
2016-03-06T19:54:07.454Z,20.74
2016-03-06T19:55:04.550Z,20.72
2016-03-06T19:56:08.100Z,20.63
2016-03-06T19:57:08.555Z,20.71
2016-03-06T19:58:08.090Z,20.72
2016-03-06T19:59:09.123Z,20.72
2016-03-06T20:00:07.642Z,20.72
2016-03-06T20:01:07.691Z,20.78
2016-03-06T20:02:07.960Z,20.79
2016-03-06T20:03:07.947Z,20.71
2016-03-06T20:04:08.231Z,20.71
2016-03-06T20:07:08.004Z,20.64
2016-03-06T20:08:22.120Z,20.58
2016-03-06T20:09:08.370Z,20.64
2016-03-06T20:10:08.747Z,20.66
2016-03-06T20:11:08.453Z,20.54
2016-03-06T20:12:05.689Z,20.67
2016-03-06T20:13:08.114Z,20.66
2016-03-06T20:14:08.148Z,20.64
2016-03-06T20:15:07.964Z,20.67
2016-03-06T20:16:08.451Z,20.68
2016-03-06T20:17:07.891Z,20.67
2016-03-06T20:18:07.612Z,20.66
2016-03-06T20:19:09.036Z,20.72
2016-03-06T20:20:04.852Z,20.63
2016-03-06T20:21:08.339Z,20.63
2016-03-06T20:22:08.154Z,20.68
2016-03-06T20:23:08.063Z,20.56
2016-03-06T20:24:08.612Z,20.58
2016-03-06T20:25:08.271Z,20.6
